Time;durP1;ratioP1;P1;durP2;ratioP2;P2;SDS_P1;SDS_P2;PMS_P1;PMS_P2;Temp;Humidity;BMP_temperature;BMP_pressure;BME280_temperature;BME280_humidity;BME280_pressure;Samples;Min_cycle;Max_cycle;Signal;HPM_P1;HPM_P2
2022/01/18 00:01:57;;;;;;;12.02;3.67;;;;;;;11.84;56.74;103297.06;5087666;28;20130;-75
2022/01/18 00:04:24;;;;;;;9.23;3.08;;;;;;;11.84;56.78;103291.59;5064549;28;20055;-75
2022/01/18 00:06:53;;;;;;;10.13;2.88;;;;;;;11.83;57.10;103298.88;5086817;28;20059;-75
2022/01/18 00:09:23;;;;;;;10.88;3.35;;;;;;;11.84;56.83;103302.50;5058310;28;20069;-75
2022/01/18 00:11:59;;;;;;;10.20;3.00;;;;;;;11.84;56.92;103300.66;5087839;28;20048;-75
2022/01/18 00:14:38;;;;;;;8.25;2.42;;;;;;;11.83;56.92;103290.72;5084112;28;20044;-75
2022/01/18 00:17:17;;;;;;;8.70;3.35;;;;;;;11.83;56.94;103296.16;5084364;28;20475;-75
2022/01/18 00:19:54;;;;;;;7.47;2.97;;;;;;;11.82;57.14;103302.53;5085202;28;20099;-75
2022/01/18 00:22:23;;;;;;;13.85;3.42;;;;;;;11.81;56.60;103304.38;5066206;28;20048;-75
2022/01/18 00:24:50;;;;;;;10.85;3.53;;;;;;;11.80;56.66;103302.59;5086859;28;20139;-75
2022/01/18 00:27:18;;;;;;;10.05;4.25;;;;;;;11.81;56.99;103303.47;5097503;28;20044;-75
2022/01/18 00:35:07;;;;;;;9.43;3.40;;;;;;;11.78;56.69;103306.28;5079570;28;20439;-75
2022/01/18 00:37:36;;;;;;;9.10;3.05;;;;;;;11.77;56.59;103310.88;5089432;28;20352;-75
2022/01/18 00:40:05;;;;;;;10.13;3.70;;;;;;;11.79;56.86;103316.25;5083874;28;20143;-75
2022/01/18 00:42:32;;;;;;;8.48;3.25;;;;;;;11.78;56.90;103322.63;5088727;28;20133;-75
2022/01/18 00:44:59;;;;;;;9.60;2.90;;;;;;;11.77;56.95;103324.47;5054158;28;20090;-75
2022/01/18 00:47:26;;;;;;;7.72;3.17;;;;;;;11.78;56.75;103336.22;5095765;28;20083;-75
2022/01/18 00:50:00;;;;;;;9.88;3.08;;;;;;;11.78;57.17;103338.94;5086996;28;20078;-75
2022/01/18 00:52:29;;;;;;;11.07;3.53;;;;;;;11.80;57.07;103331.63;5089127;28;20068;-75
2022/01/18 00:54:56;;;;;;;10.27;3.10;;;;;;;11.79;56.99;103336.19;5068931;28;20146;-75
2022/01/18 00:57:23;;;;;;;13.15;3.42;;;;;;;11.79;56.93;103329.84;5088427;28;20556;-75
2022/01/18 00:59:49;;;;;;;9.25;3.40;;;;;;;11.79;56.64;103332.56;5086660;28;20388;-75
2022/01/18 01:02:18;;;;;;;10.50;3.22;;;;;;;11.80;56.80;103328.91;5087345;28;20171;-75
2022/01/18 01:04:49;;;;;;;11.75;3.50;;;;;;;11.79;56.73;103336.19;5068220;28;20442;-75
2022/01/18 01:07:21;;;;;;;7.80;2.83;;;;;;;11.81;56.69;103331.59;5084765;28;20052;-75
2022/01/18 01:09:49;;;;;;;11.60;3.13;;;;;;;11.78;56.81;103350.72;5091660;28;20126;-75
2022/01/18 01:12:19;;;;;;;9.88;2.95;;;;;;;11.78;56.80;103348.00;5084495;28;20048;-75
2022/01/18 01:14:49;;;;;;;11.77;2.88;;;;;;;11.78;56.86;103342.56;5090372;28;20052;-75
2022/01/18 01:46:54;;;;;;;8.63;3.13;;;;;;;11.72;56.93;103352.72;5050390;28;20101;-75
2022/01/18 01:49:23;;;;;;;10.45;2.90;;;;;;;11.72;57.15;103348.19;5085085;28;20051;-75
2022/01/18 01:51:50;;;;;;;9.27;2.45;;;;;;;11.71;56.64;103349.13;5069656;28;20563;-75
2022/01/18 01:54:16;;;;;;;9.60;2.80;;;;;;;11.71;57.01;103349.13;5090238;28;20052;-75
2022/01/18 01:56:44;;;;;;;9.10;2.65;;;;;;;11.71;56.63;103354.56;5081135;28;20052;-75
2022/01/18 01:59:11;;;;;;;6.65;2.35;;;;;;;11.71;56.76;103357.28;5089153;28;20040;-75
2022/01/18 02:01:49;;;;;;;9.10;2.58;;;;;;;11.73;56.71;103354.50;5091608;28;20106;-74
2022/01/18 02:04:17;;;;;;;11.00;2.97;;;;;;;11.72;56.66;103358.19;5090097;28;20055;-75
2022/01/18 02:06:44;;;;;;;9.27;2.88;;;;;;;11.71;56.80;103360.00;5087551;28;20055;-75
2022/01/18 02:09:10;;;;;;;10.38;2.50;;;;;;;11.72;56.74;103355.44;5087870;28;20670;-75
2022/01/18 02:11:37;;;;;;;8.68;2.83;;;;;;;11.71;56.69;103350.94;5081149;28;20500;-75
2022/01/18 02:14:12;;;;;;;7.38;2.42;;;;;;;11.73;56.57;103359.97;5083668;28;20139;-75
2022/01/18 02:22:13;;;;;;;8.90;2.50;;;;;;;11.70;56.48;103346.44;5086805;28;20051;-75
2022/01/18 02:24:40;;;;;;;8.00;2.08;;;;;;;11.71;56.70;103346.41;5081857;28;20068;-75
2022/01/18 02:27:07;;;;;;;10.13;2.60;;;;;;;11.71;56.43;103340.94;5088135;28;20087;-75
2022/01/18 02:29:34;;;;;;;10.38;2.63;;;;;;;11.71;56.44;103346.41;5071351;28;20078;-75
2022/01/18 02:32:03;;;;;;;8.15;2.03;;;;;;;11.71;56.46;103348.22;5085737;28;20040;-75
2022/01/18 02:34:30;;;;;;;6.88;2.10;;;;;;;11.71;56.38;103351.84;5085253;28;20040;-75
2022/01/18 02:36:59;;;;;;;9.00;2.00;;;;;;;11.71;56.85;103351.84;5081764;28;20072;-75
2022/01/18 02:39:28;;;;;;;6.28;2.10;;;;;;;11.72;56.33;103345.47;5087013;28;20071;-75
2022/01/18 02:42:06;;;;;;;9.40;1.90;;;;;;;11.73;56.20;103347.25;5085570;28;20086;-75
2022/01/18 02:44:35;;;;;;;5.60;1.80;;;;;;;11.71;56.49;103342.78;5089110;28;20044;-75
2022/01/18 02:47:03;;;;;;;6.90;1.85;;;;;;;11.71;56.65;103348.22;5078277;28;20074;-75
2022/01/18 02:49:30;;;;;;;6.95;1.70;;;;;;;11.70;56.55;103347.31;5075410;28;20127;-75
2022/01/18 02:51:58;;;;;;;5.72;2.00;;;;;;;11.72;56.37;103347.28;5082935;28;20075;-75
2022/01/18 02:54:24;;;;;;;9.18;2.35;;;;;;;11.70;56.52;103344.59;5089818;28;20556;-75
2022/01/18 02:56:57;;;;;;;5.20;1.92;;;;;;;11.70;56.50;103333.72;5088756;28;20071;-75
2022/01/18 02:59:47;;;;;;;7.70;2.50;;;;;;;11.69;56.38;103344.69;5083705;28;20040;-75
2022/01/18 03:05:14;;;;;;;7.05;1.70;;;;;;;11.67;56.61;103339.28;5082773;28;20032;-75
2022/01/18 03:07:41;;;;;;;8.07;1.90;;;;;;;11.67;56.50;103331.13;5092176;28;20151;-75
2022/01/18 03:10:10;;;;;;;5.80;2.00;;;;;;;11.69;56.69;103344.69;5088855;28;20072;-75
2022/01/18 03:12:37;;;;;;;6.68;2.25;;;;;;;11.67;56.59;103344.72;5085589;28;20287;-75
2022/01/18 03:15:05;;;;;;;9.00;2.40;;;;;;;11.68;56.47;103340.19;5087674;28;20078;-75
2022/01/18 03:17:32;;;;;;;8.32;2.17;;;;;;;11.68;56.79;103342.91;5076347;28;20052;-75
2022/01/18 03:19:58;;;;;;;6.93;2.20;;;;;;;11.67;56.45;103344.72;5088963;28;20086;-75
2022/01/18 03:22:26;;;;;;;8.57;2.10;;;;;;;11.66;56.87;103342.94;5083183;28;20466;-75
2022/01/18 03:25:01;;;;;;;9.57;2.45;;;;;;;11.66;56.62;103348.38;5082377;28;20040;-74
2022/01/18 03:30:14;;;;;;;10.48;2.55;;;;;;;11.65;56.42;103352.03;5060046;28;20048;-75
2022/01/18 03:32:41;;;;;;;8.20;2.45;;;;;;;11.66;56.53;103348.38;5087636;28;20058;-76
2022/01/18 03:35:09;;;;;;;8.75;2.25;;;;;;;11.68;56.33;103357.41;5088077;28;20535;-75
2022/01/18 03:37:36;;;;;;;6.90;2.30;;;;;;;11.67;56.43;103350.16;5071198;28;20130;-75
2022/01/18 03:40:05;;;;;;;7.32;2.30;;;;;;;11.67;56.50;103350.16;5070297;28;20075;-75
2022/01/18 03:45:02;;;;;;;7.80;2.13;;;;;;;11.66;56.47;103345.66;5083213;28;20037;-75
2022/01/18 03:47:30;;;;;;;8.45;2.20;;;;;;;11.66;56.27;103345.66;5088832;28;20143;-75
2022/01/18 03:49:58;;;;;;;9.50;2.45;;;;;;;11.67;56.39;103354.72;5088947;28;20403;-75
2022/01/18 03:52:24;;;;;;;9.05;2.15;;;;;;;11.66;56.68;103355.66;5087820;28;20269;-75
2022/01/18 03:54:51;;;;;;;7.53;2.33;;;;;;;11.66;56.32;103353.81;5032782;28;20052;-75
2022/01/18 03:57:18;;;;;;;8.55;2.55;;;;;;;11.65;56.62;103362.94;5074259;28;20298;-75
2022/01/18 03:59:46;;;;;;;7.15;1.83;;;;;;;11.66;56.64;103361.09;5081666;28;20067;-75
2022/01/18 04:02:14;;;;;;;6.88;2.20;;;;;;;11.65;56.55;103360.22;5088330;28;20552;-75
2022/01/18 04:04:41;;;;;;;11.15;2.50;;;;;;;11.66;56.40;103362.00;5087344;28;20058;-75
2022/01/18 04:07:07;;;;;;;8.65;2.42;;;;;;;11.67;56.52;103365.59;5058844;28;20142;-75
2022/01/18 04:09:34;;;;;;;7.95;2.00;;;;;;;11.65;56.49;103360.22;5087607;28;20136;-75
2022/01/18 04:12:03;;;;;;;12.05;2.13;;;;;;;11.66;56.42;103363.81;5088708;28;20074;-75
2022/01/18 04:14:30;;;;;;;8.45;2.20;;;;;;;11.64;56.38;103352.97;5070303;28;20044;-75
2022/01/18 04:27:35;;;;;;;9.48;2.10;;;;;;;11.60;56.52;103366.75;5084305;28;20105;-75
2022/01/18 04:30:02;;;;;;;7.00;1.90;;;;;;;11.61;56.26;103363.94;5087960;28;20051;-75
2022/01/18 04:32:29;;;;;;;7.25;2.42;;;;;;;11.61;56.43;103363.09;5087258;28;20384;-75
2022/01/18 04:34:56;;;;;;;8.38;2.50;;;;;;;11.61;56.43;103357.66;5068060;28;20403;-75
2022/01/18 04:37:22;;;;;;;8.70;2.90;;;;;;;11.62;56.50;103357.56;5088286;28;20143;-75
2022/01/18 04:39:49;;;;;;;7.57;2.30;;;;;;;11.60;56.51;103356.75;5075501;28;20048;-75
2022/01/18 04:42:31;;;;;;;10.40;2.83;;;;;;;11.61;56.38;103355.78;5085663;28;20571;-75
2022/01/18 04:50:50;;;;;;;7.45;2.08;;;;;;;11.58;56.46;103353.19;5028752;28;20471;-75
2022/01/18 04:53:17;;;;;;;9.38;2.28;;;;;;;11.58;56.50;103350.47;5029924;28;20084;-75
2022/01/18 04:55:44;;;;;;;7.38;2.13;;;;;;;11.59;56.35;103354.06;5027698;28;20559;-75
2022/01/18 04:58:10;;;;;;;7.72;2.35;;;;;;;11.59;56.60;103365.84;5013333;28;20091;-75
2022/01/18 05:00:42;;;;;;;8.60;2.33;;;;;;;11.58;56.36;103361.34;5020185;28;20046;-75
2022/01/18 05:03:09;;;;;;;7.63;2.25;;;;;;;11.58;56.58;103366.78;5027570;28;20630;-75
2022/01/18 05:05:37;;;;;;;8.57;2.85;;;;;;;11.57;56.60;103365.00;5022827;28;21268;-75
2022/01/18 05:08:06;;;;;;;7.80;2.17;;;;;;;11.58;56.74;103372.22;5025221;28;20081;-75
2022/01/18 05:10:32;;;;;;;8.57;2.60;;;;;;;11.57;56.59;103366.81;4985191;28;20148;-75
2022/01/18 05:13:09;;;;;;;7.93;2.30;;;;;;;11.58;56.68;103371.34;5026674;28;20076;-75
2022/01/18 05:15:44;;;;;;;7.53;2.47;;;;;;;11.57;56.38;103380.44;5005698;28;20612;-75
2022/01/18 05:23:40;;;;;;;7.85;2.70;;;;;;;11.54;56.80;103381.41;5091714;28;20047;-77
2022/01/18 05:26:07;;;;;;;8.95;2.50;;;;;;;11.56;56.55;103386.81;5086529;28;20070;-74
2022/01/18 05:28:33;;;;;;;9.15;2.30;;;;;;;11.55;56.40;103385.00;5091791;28;20131;-75
2022/01/18 05:31:00;;;;;;;8.57;2.53;;;;;;;11.54;56.44;103389.56;5077834;28;20410;-77
2022/01/18 05:33:29;;;;;;;6.93;2.63;;;;;;;11.54;56.54;103386.84;5090764;28;20076;-75
2022/01/18 05:35:56;;;;;;;9.68;2.88;;;;;;;11.53;56.52;103387.78;5068033;28;20485;-75
2022/01/18 05:38:25;;;;;;;7.05;2.35;;;;;;;11.52;56.49;103388.75;5088182;28;20040;-75
2022/01/18 05:40:52;;;;;;;9.63;2.50;;;;;;;11.52;56.50;103388.75;5058391;28;20113;-75
2022/01/18 05:43:19;;;;;;;11.10;2.70;;;;;;;11.52;56.51;103383.31;5090696;28;20285;-75
2022/01/18 05:45:45;;;;;;;9.43;2.58;;;;;;;11.51;56.52;103378.81;5085399;28;20048;-75
2022/01/18 05:48:12;;;;;;;8.70;2.65;;;;;;;11.51;56.37;103381.53;5090921;28;20461;-75
2022/01/18 05:50:39;;;;;;;9.20;2.97;;;;;;;11.51;56.59;103388.78;5095661;28;20079;-75
2022/01/18 05:53:05;;;;;;;7.45;3.20;;;;;;;11.50;56.57;103379.72;5091402;28;20105;-74
2022/01/18 05:55:33;;;;;;;8.50;2.97;;;;;;;11.50;56.69;103385.16;5087818;28;20154;-75
2022/01/18 05:58:00;;;;;;;9.35;3.42;;;;;;;11.50;56.64;103390.63;5090557;28;20245;-74
2022/01/18 06:00:28;;;;;;;9.00;3.10;;;;;;;11.50;56.44;103396.06;5072565;28;20090;-75
2022/01/18 06:08:15;;;;;;;6.78;2.70;;;;;;;11.49;56.73;103393.38;5085009;28;20048;-74
2022/01/18 06:10:42;;;;;;;7.90;3.40;;;;;;;11.51;56.64;103399.66;5087281;28;20250;-74
2022/01/18 06:13:09;;;;;;;9.93;3.28;;;;;;;11.51;56.63;103397.84;5086457;28;20158;-75
2022/01/18 06:15:35;;;;;;;8.90;3.40;;;;;;;11.51;56.66;103394.22;5081007;28;20044;-74
2022/01/18 06:18:03;;;;;;;7.60;3.45;;;;;;;11.53;56.90;103397.81;5087104;28;20052;-75
2022/01/18 06:20:30;;;;;;;10.95;3.72;;;;;;;11.51;56.97;103400.56;5080267;28;20051;-75
2022/01/18 06:22:57;;;;;;;10.27;3.70;;;;;;;11.53;56.86;103397.81;5073961;28;20098;-74
2022/01/18 06:25:27;;;;;;;7.47;3.28;;;;;;;11.52;56.56;103402.34;5072039;28;20769;-74
2022/01/18 06:27:54;;;;;;;7.10;2.90;;;;;;;11.52;56.90;103402.34;5073782;28;20091;-74
2022/01/18 06:30:20;;;;;;;12.23;3.50;;;;;;;11.53;56.80;103405.97;5092239;28;20143;-74
2022/01/18 06:32:47;;;;;;;6.43;3.13;;;;;;;11.52;56.65;103399.63;5091017;28;20407;-74
2022/01/18 06:35:17;;;;;;;7.50;3.53;;;;;;;11.53;56.72;103401.38;5076343;28;20219;-75
2022/01/18 06:37:44;;;;;;;9.07;3.28;;;;;;;11.53;56.98;103390.50;5090868;28;20540;-74
2022/01/18 06:40:13;;;;;;;9.45;3.38;;;;;;;11.54;56.93;103394.13;5090810;28;20051;-77
2022/01/18 06:42:40;;;;;;;8.38;3.35;;;;;;;11.54;56.69;103405.00;5088669;28;20544;-74
2022/01/18 06:45:08;;;;;;;8.98;2.88;;;;;;;11.54;56.65;103405.88;5086097;28;20055;-75
2022/01/18 06:47:35;;;;;;;6.28;2.80;;;;;;;11.54;56.71;103405.00;5063758;28;20068;-75
2022/01/18 06:50:02;;;;;;;13.00;3.92;;;;;;;11.54;57.01;103405.88;5088760;28;20068;-75
2022/01/18 06:52:29;;;;;;;10.52;3.53;;;;;;;11.54;56.85;103411.34;5083848;28;20072;-75
2022/01/18 06:54:56;;;;;;;10.57;3.53;;;;;;;11.54;56.85;103413.16;5081963;28;20103;-76
2022/01/18 06:57:23;;;;;;;7.10;3.53;;;;;;;11.56;56.74;103416.72;5075872;28;20075;-76
2022/01/18 06:59:49;;;;;;;9.90;3.45;;;;;;;11.54;56.82;103416.78;5083249;28;20068;-75
2022/01/18 07:02:16;;;;;;;9.70;3.20;;;;;;;11.55;56.69;103426.72;5073198;28;20443;-75
2022/01/18 07:04:43;;;;;;;10.20;3.63;;;;;;;11.55;56.72;103431.28;5087242;28;20093;-75
2022/01/18 07:07:09;;;;;;;10.25;3.28;;;;;;;11.55;56.83;103432.16;5078733;28;20127;-75
2022/01/18 07:09:36;;;;;;;8.50;3.55;;;;;;;11.54;56.56;103433.09;5074122;28;20068;-75
2022/01/18 07:12:08;;;;;;;10.45;3.80;;;;;;;11.55;57.00;103431.28;5068446;28;20043;-77
2022/01/18 07:14:35;;;;;;;9.55;3.15;;;;;;;11.53;56.92;103433.16;5091460;28;20127;-77
2022/01/18 07:17:02;;;;;;;10.27;3.97;;;;;;;11.55;56.69;103432.16;5089870;28;20048;-75
2022/01/18 07:19:33;;;;;;;7.68;3.38;;;;;;;11.56;56.86;103433.06;5056276;28;20060;-75
2022/01/18 07:22:00;;;;;;;10.52;3.50;;;;;;;11.55;56.83;103429.44;5074633;28;20048;-75
2022/01/18 07:27:12;;;;;;;13.90;3.95;;;;;;;11.56;56.74;103416.72;5090665;28;20080;-75
2022/01/18 07:29:41;;;;;;;7.10;3.70;;;;;;;11.55;56.92;103414.94;5090357;28;20085;-75
2022/01/18 07:32:10;;;;;;;10.75;3.85;;;;;;;11.57;56.70;103423.97;5090975;28;20105;-74
2022/01/18 07:34:41;;;;;;;9.30;3.58;;;;;;;11.55;56.68;103414.94;5083543;28;20055;-74
2022/01/18 07:37:09;;;;;;;7.65;3.70;;;;;;;11.55;56.67;103420.38;5090091;28;20048;-76
2022/01/18 07:39:36;;;;;;;10.90;3.53;;;;;;;11.54;56.77;103427.66;5090668;28;20048;-76
2022/01/18 07:42:03;;;;;;;6.88;3.28;;;;;;;11.54;56.73;103424.94;5076707;28;20545;-78
2022/01/18 07:44:30;;;;;;;7.57;3.63;;;;;;;11.54;56.71;103435.81;5082219;28;20132;-76
2022/01/18 07:46:57;;;;;;;10.90;4.20;;;;;;;11.54;56.48;103433.09;5085881;28;20086;-76
2022/01/18 07:49:24;;;;;;;9.82;3.72;;;;;;;11.52;56.66;103440.44;5090583;28;20044;-76
2022/01/18 07:51:50;;;;;;;11.75;4.13;;;;;;;11.52;56.70;103440.44;5072988;28;20127;-77
2022/01/18 07:54:17;;;;;;;10.10;3.80;;;;;;;11.51;56.63;103441.38;5090320;28;20494;-76
2022/01/18 07:56:44;;;;;;;9.15;4.00;;;;;;;11.51;56.55;103445.91;5086074;28;20123;-77
2022/01/18 07:59:12;;;;;;;8.40;4.07;;;;;;;11.51;56.83;103446.81;5085766;28;20052;-76
2022/01/18 08:01:39;;;;;;;12.40;3.85;;;;;;;11.51;56.50;103454.09;5090638;28;20051;-77
2022/01/18 08:04:06;;;;;;;9.73;3.80;;;;;;;11.50;56.96;103453.19;5089384;28;20043;-77
2022/01/18 08:06:33;;;;;;;10.77;4.50;;;;;;;11.50;56.87;103453.19;5083716;28;20097;-76
2022/01/18 08:08:59;;;;;;;11.02;4.30;;;;;;;11.50;56.90;103446.84;5092864;28;20059;-76
2022/01/18 08:11:26;;;;;;;10.73;4.38;;;;;;;11.51;56.61;103445.91;5097844;28;20054;-76
2022/01/18 08:13:53;;;;;;;8.27;4.05;;;;;;;11.51;56.61;103456.81;5088418;28;20079;-76
2022/01/18 08:18:57;;;;;;;9.70;4.22;;;;;;;11.52;56.90;103455.88;5090929;28;20207;-77
2022/01/18 08:21:25;;;;;;;7.40;3.85;;;;;;;11.52;56.74;103454.03;5089919;28;20071;-77
2022/01/18 08:23:52;;;;;;;9.70;4.72;;;;;;;11.51;56.59;103457.69;5088605;28;20080;-77
2022/01/18 08:26:19;;;;;;;8.20;4.13;;;;;;;11.51;56.81;103460.41;5092610;28;20629;-77
2022/01/18 08:28:46;;;;;;;9.38;4.30;;;;;;;11.51;56.87;103451.34;5088991;28;20550;-76
2022/01/18 08:31:13;;;;;;;9.45;4.50;;;;;;;11.52;56.78;103450.44;5088981;28;20051;-76
2022/01/18 08:33:40;;;;;;;10.57;4.63;;;;;;;11.53;56.89;103454.94;5084074;28;20048;-76
2022/01/18 08:36:07;;;;;;;9.05;4.15;;;;;;;11.54;56.92;103445.81;5078811;28;20083;-78
2022/01/18 08:38:35;;;;;;;9.65;4.20;;;;;;;11.55;56.84;103451.22;5082796;28;20044;-76
2022/01/18 08:41:11;;;;;;;8.48;3.60;;;;;;;11.54;56.79;103453.97;5089290;28;20753;-77
2022/01/18 08:43:38;;;;;;;8.27;4.30;;;;;;;11.55;57.04;103455.75;5089124;28;20131;-76
2022/01/18 08:46:05;;;;;;;11.23;3.95;;;;;;;11.58;56.99;103450.22;5086554;28;20123;-76
2022/01/18 08:48:34;;;;;;;11.30;4.20;;;;;;;11.58;56.76;103458.41;5070671;28;20102;-77
2022/01/18 08:51:00;;;;;;;9.45;4.47;;;;;;;11.59;56.91;103457.47;5089358;28;20044;-76
2022/01/18 08:53:27;;;;;;;12.90;4.65;;;;;;;11.59;56.69;103454.75;5082804;28;20040;-76
2022/01/18 08:55:54;;;;;;;8.80;4.35;;;;;;;11.59;56.81;103455.63;5028259;28;20068;-75
2022/01/18 08:58:21;;;;;;;11.32;4.07;;;;;;;11.60;56.81;103460.16;5089891;28;20744;-75
2022/01/18 09:00:49;;;;;;;11.93;4.47;;;;;;;11.61;56.85;103461.91;5044275;28;20060;-75
2022/01/18 09:03:16;;;;;;;11.23;4.53;;;;;;;11.61;57.01;103456.47;5087766;28;20036;-76
2022/01/18 09:05:45;;;;;;;11.98;4.60;;;;;;;11.64;56.76;103469.09;5074958;28;20143;-76
2022/01/18 09:08:13;;;;;;;7.55;4.28;;;;;;;11.64;56.99;103461.81;5076674;28;20123;-76
2022/01/18 09:10:40;;;;;;;12.25;4.72;;;;;;;11.66;56.70;103473.56;5083163;28;20132;-76
2022/01/18 09:13:07;;;;;;;10.25;4.47;;;;;;;11.65;57.14;103465.44;5086842;28;20055;-77
2022/01/18 09:15:34;;;;;;;9.68;4.93;;;;;;;11.67;56.63;103475.34;5079269;28;20094;-77
2022/01/18 09:18:00;;;;;;;10.18;4.25;;;;;;;11.68;57.03;103482.59;5084016;28;20048;-77
2022/01/18 09:20:27;;;;;;;10.30;4.90;;;;;;;11.70;57.10;103482.50;5069779;28;20052;-76
2022/01/18 09:22:54;;;;;;;11.00;4.75;;;;;;;11.70;57.05;103487.94;5089625;28;20533;-76
2022/01/18 09:25:26;;;;;;;9.65;4.35;;;;;;;11.73;56.78;103482.44;5087172;28;20098;-77
2022/01/18 09:27:54;;;;;;;7.53;3.97;;;;;;;11.70;57.23;103490.69;5091647;28;20529;-76
2022/01/18 09:30:26;;;;;;;9.55;4.28;;;;;;;11.73;56.61;103488.78;5082859;28;20075;-76
2022/01/18 09:32:55;;;;;;;11.48;4.38;;;;;;;11.73;56.63;103493.31;5075313;28;20106;-76
2022/01/18 09:35:22;;;;;;;11.25;4.20;;;;;;;11.73;56.68;103490.59;5078412;28;20052;-75
2022/01/18 09:37:49;;;;;;;10.48;4.40;;;;;;;11.74;56.96;103493.31;5093431;28;20044;-74
2022/01/18 09:40:19;;;;;;;10.02;4.95;;;;;;;11.75;56.96;103495.09;5091402;28;20136;-76
2022/01/18 09:42:47;;;;;;;12.70;4.85;;;;;;;11.77;56.83;103489.63;5092480;28;20479;-75
2022/01/18 09:45:16;;;;;;;10.98;4.13;;;;;;;11.78;57.09;103489.53;5086795;28;20048;-75
2022/01/18 09:47:46;;;;;;;13.73;5.40;;;;;;;11.80;57.02;103495.84;5091148;28;20783;-75
2022/01/18 09:50:18;;;;;;;10.48;4.28;;;;;;;11.82;56.86;103488.53;5091378;28;20550;-75
2022/01/18 09:52:51;;;;;;;11.68;4.93;;;;;;;11.81;56.98;103494.91;5078683;28;20052;-76
2022/01/18 09:55:19;;;;;;;10.10;4.35;;;;;;;11.84;57.14;103493.94;5072407;28;20056;-76
2022/01/18 09:57:46;;;;;;;10.75;4.47;;;;;;;11.87;56.99;103496.53;5092392;28;20127;-75
2022/01/18 10:00:13;;;;;;;12.00;5.75;;;;;;;11.90;57.17;103504.63;5089979;28;20541;-75
2022/01/18 10:02:40;;;;;;;14.38;6.00;;;;;;;11.92;57.00;103501.88;5089338;28;20090;-75
2022/01/18 10:05:25;;;;;;;10.45;5.18;;;;;;;11.96;56.53;103509.88;5089804;28;20044;-75
2022/01/18 10:08:07;;;;;;;11.05;5.60;;;;;;;11.97;56.97;103505.31;5087613;28;20083;-75
2022/01/18 10:11:08;;;;;;;10.93;5.38;;;;;;;11.97;56.55;103508.94;5071381;28;20104;-76
2022/01/18 10:13:36;;;;;;;12.23;5.90;;;;;;;11.99;57.20;103507.06;5087590;28;20120;-75
2022/01/18 10:16:10;;;;;;;11.48;5.70;;;;;;;12.05;56.53;103506.88;5081967;28;20155;-75
2022/01/18 10:18:49;;;;;;;10.13;6.13;;;;;;;12.06;56.72;103508.66;5086777;28;20048;-75
2022/01/18 10:21:29;;;;;;;10.77;6.25;;;;;;;12.09;56.66;103505.88;5090688;28;20450;-74
2022/01/18 10:24:22;;;;;;;12.00;6.78;;;;;;;12.08;56.64;103498.63;5088727;28;20048;-77
2022/01/18 10:26:51;;;;;;;11.70;6.63;;;;;;;12.07;56.86;103501.38;5072871;28;20052;-76
2022/01/18 10:29:20;;;;;;;12.00;6.10;;;;;;;12.10;56.97;103502.19;5064897;28;20449;-76
2022/01/18 10:37:09;;;;;;;13.80;7.10;;;;;;;12.14;56.83;103483.91;5088417;28;20047;-75
2022/01/18 10:39:51;;;;;;;13.38;7.25;;;;;;;12.17;56.69;103486.56;5088458;28;20047;-76
2022/01/18 10:42:19;;;;;;;13.23;7.07;;;;;;;12.17;56.69;103478.38;5089738;28;20099;-75
2022/01/18 10:44:56;;;;;;;9.48;6.03;;;;;;;12.18;56.92;103477.44;5087814;28;20052;-75
2022/01/18 10:47:25;;;;;;;13.20;6.72;;;;;;;12.20;56.83;103483.72;5087266;28;20044;-75
2022/01/18 10:49:52;;;;;;;12.73;6.82;;;;;;;12.21;56.91;103482.78;5089791;28;20067;-75
2022/01/18 10:52:22;;;;;;;13.63;6.20;;;;;;;12.25;56.79;103478.13;5092132;28;20074;-76
2022/01/18 10:54:54;;;;;;;11.15;5.93;;;;;;;12.27;56.89;103481.72;5086251;28;20048;-75
2022/01/18 10:57:30;;;;;;;10.23;6.30;;;;;;;12.27;56.71;103477.13;5092557;28;20162;-76
2022/01/18 11:00:17;;;;;;;11.27;5.35;;;;;;;12.28;56.32;103468.00;5089602;28;20130;-75
2022/01/18 11:02:48;;;;;;;11.90;5.40;;;;;;;12.29;56.66;103464.34;5085410;28;20052;-75
2022/01/18 11:05:36;;;;;;;12.50;5.70;;;;;;;12.31;56.68;103469.75;5086348;28;20165;-74
2022/01/18 11:08:06;;;;;;;10.65;5.05;;;;;;;12.31;56.52;103475.22;5006886;28;20132;-75
2022/01/18 11:10:35;;;;;;;11.95;5.75;;;;;;;12.34;56.55;103470.56;5001315;28;20053;-75
2022/01/18 11:13:26;;;;;;;11.63;5.50;;;;;;;12.36;56.60;103468.66;5001859;28;20624;-74
2022/01/18 11:16:03;;;;;;;11.48;5.60;;;;;;;12.36;56.72;103460.47;5004281;28;20132;-74
2022/01/18 11:18:35;;;;;;;14.73;7.35;;;;;;;12.38;56.51;103463.16;5007030;28;20509;-75
2022/01/18 11:21:02;;;;;;;14.48;7.55;;;;;;;12.39;56.57;103456.78;5005359;28;20243;-74
2022/01/18 11:23:33;;;;;;;14.80;7.85;;;;;;;12.44;56.61;103463.84;5007116;28;20049;-74
2022/01/18 11:26:00;;;;;;;19.60;8.50;;;;;;;12.44;56.63;103458.41;5005570;28;20572;-75
2022/01/18 11:28:33;;;;;;;12.98;7.20;;;;;;;12.45;56.58;103454.72;5007063;28;20046;-74
2022/01/18 11:30:59;;;;;;;12.85;7.35;;;;;;;12.47;56.54;103452.84;5005727;28;20136;-75
2022/01/18 11:33:30;;;;;;;13.45;7.65;;;;;;;12.50;56.86;103451.88;5007026;28;20240;-75
2022/01/18 11:36:12;;;;;;;13.40;7.50;;;;;;;12.52;56.33;103444.50;5009567;28;20136;-74
2022/01/18 11:38:52;;;;;;;15.52;7.55;;;;;;;12.54;56.82;103448.09;5001072;28;20050;-74
2022/01/18 11:41:23;;;;;;;14.55;9.10;;;;;;;12.56;56.71;103451.66;5010076;28;20084;-74
2022/01/18 11:43:51;;;;;;;13.18;8.18;;;;;;;12.57;56.55;103448.00;5001368;28;20073;-75
2022/01/18 11:46:27;;;;;;;13.13;8.15;;;;;;;12.62;56.15;103446.00;5080307;28;20423;-75
2022/01/18 11:49:03;;;;;;;14.85;8.13;;;;;;;12.64;56.31;103440.50;5085293;28;20376;-75
2022/01/18 11:51:37;;;;;;;18.38;8.20;;;;;;;12.65;55.90;103440.44;5081904;28;20047;-75
2022/01/18 11:55:03;;;;;;;16.35;8.13;;;;;;;12.65;56.11;103440.44;5085770;28;20048;-74
2022/01/18 11:57:23;;;;;;;14.98;7.53;;;;;;;12.66;56.41;103433.16;5080568;28;20049;-74
2022/01/18 12:00:08;;;;;;;14.27;7.55;;;;;;;12.69;56.01;103435.75;5083474;28;20043;-76
2022/01/18 12:02:40;;;;;;;13.68;7.97;;;;;;;12.68;56.57;103429.44;5069685;28;20533;-76
2022/01/18 12:05:18;;;;;;;13.15;8.15;;;;;;;12.69;56.42;103435.75;5086740;28;20051;-76
2022/01/18 12:07:47;;;;;;;16.45;8.65;;;;;;;12.70;56.49;103426.66;5086767;28;20068;-76
2022/01/18 12:10:30;;;;;;;15.45;8.60;;;;;;;12.74;56.04;103433.78;5087600;28;20453;-76
2022/01/18 12:13:05;;;;;;;14.52;8.50;;;;;;;12.74;56.26;103434.69;5064735;28;20048;-75
2022/01/18 12:15:32;;;;;;;16.90;8.43;;;;;;;12.74;56.30;103426.50;5068327;28;20071;-75
2022/01/18 12:18:02;;;;;;;15.95;8.48;;;;;;;12.77;56.33;103425.47;5070350;28;20637;-76
2022/01/18 12:20:35;;;;;;;15.95;8.23;;;;;;;12.79;55.90;103431.78;5086714;28;20048;-75
2022/01/18 12:23:04;;;;;;;14.10;8.77;;;;;;;12.77;56.21;103426.38;5087369;28;20074;-77
2022/01/18 12:25:35;;;;;;;13.68;8.52;;;;;;;12.79;56.23;103427.22;5089203;28;20055;-76
2022/01/18 12:28:51;;;;;;;13.95;8.27;;;;;;;12.81;55.63;103421.72;5083351;28;20040;-75
2022/01/18 12:31:52;;;;;;;15.63;8.60;;;;;;;12.80;55.75;103422.66;5086344;28;20089;-75
2022/01/18 12:34:31;;;;;;;16.50;8.30;;;;;;;12.83;55.90;103426.19;5087268;28;20443;-76
2022/01/18 12:37:27;;;;;;;14.85;8.57;;;;;;;12.84;55.39;103414.34;5077669;28;20511;-75
2022/01/18 12:39:54;;;;;;;17.85;8.95;;;;;;;12.80;55.77;103414.47;5087245;28;20047;-76
2022/01/18 12:45:19;;;;;;;13.88;7.55;;;;;;;12.80;55.86;103414.47;5049694;28;20109;-76
2022/01/18 12:47:51;;;;;;;14.55;8.13;;;;;;;12.83;55.79;103404.38;5080755;28;20044;-76
2022/01/18 12:50:49;;;;;;;11.55;7.07;;;;;;;12.83;55.52;103404.38;5081398;28;20492;-75
2022/01/18 12:53:21;;;;;;;11.68;7.15;;;;;;;12.84;55.94;103392.53;5072598;28;20051;-75
2022/01/18 12:55:54;;;;;;;12.65;7.82;;;;;;;12.87;56.17;103388.78;5086852;28;20113;-75
2022/01/18 12:58:24;;;;;;;16.83;7.55;;;;;;;12.90;55.63;103383.22;5080619;28;20072;-76
2022/01/18 13:00:53;;;;;;;13.43;7.18;;;;;;;12.89;55.83;103382.31;5086025;28;20109;-75
2022/01/18 13:03:33;;;;;;;15.10;7.22;;;;;;;12.93;55.50;103381.25;5084655;28;20125;-76
2022/01/18 13:06:04;;;;;;;14.40;7.55;;;;;;;12.94;55.84;103376.69;5061934;28;20051;-76